Time;durP1;ratioP1;P1;durP2;ratioP2;P2;SDS_P1;SDS_P2;PMS_P1;PMS_P2;Temp;Humidity;BMP_temperature;BMP_pressure;BME280_temperature;BME280_humidity;BME280_pressure;Samples;Min_cycle;Max_cycle;Signal;HPM_P1;HPM_P2
2022/09/26 00:01:41;;;;;;;7.70;4.63;;;8.30;1.00;;;;;;6309721;22;20846;-60
2022/09/26 00:04:14;;;;;;;7.27;4.37;;;8.30;52.10;;;;;;6309962;22;20395;-60
2022/09/26 00:06:41;;;;;;;5.50;4.23;;;8.30;99.90;;;;;;6308641;22;20416;-61
2022/09/26 00:09:09;;;;;;;6.83;3.70;;;8.40;35.50;;;;;;6309813;22;20539;-61
2022/09/26 00:11:38;;;;;;;6.63;4.40;;;8.40;1.00;;;;;;6309374;22;20698;-61
2022/09/26 00:14:07;;;;;;;8.60;4.53;;;8.40;1.00;;;;;;6309080;22;20490;-60
2022/09/26 00:16:38;;;;;;;9.10;4.30;;;8.40;1.00;;;;;;6308970;22;20416;-60
2022/09/26 00:19:06;;;;;;;5.40;4.20;;;8.40;1.00;;;;;;6309000;22;20835;-61
2022/09/26 00:21:34;;;;;;;5.77;4.23;;;8.40;1.00;;;;;;6310894;22;20422;-60
2022/09/26 00:24:02;;;;;;;5.57;4.90;;;8.30;1.00;;;;;;6312200;22;20387;-61
2022/09/26 00:26:32;;;;;;;6.60;4.37;;;8.30;77.00;;;;;;6310979;22;20397;-61
2022/09/26 00:29:03;;;;;;;5.20;4.20;;;8.30;99.60;;;;;;6311592;22;20729;-60
2022/09/26 00:31:33;;;;;;;6.47;5.47;;;8.20;99.90;;;;;;6310994;22;20929;-60
2022/09/26 00:34:00;;;;;;;7.40;3.83;;;8.20;99.90;;;;;;6312190;22;20397;-60
2022/09/26 00:36:28;;;;;;;5.50;4.30;;;8.30;99.90;;;;;;6311616;22;20699;-61
2022/09/26 00:38:57;;;;;;;5.83;4.63;;;8.30;99.90;;;;;;6310574;22;20386;-61
2022/09/26 00:41:25;;;;;;;7.93;5.40;;;8.30;99.90;;;;;;6311468;22;20864;-60
2022/09/26 00:43:55;;;;;;;9.20;5.10;;;8.40;99.90;;;;;;6311449;22;20422;-60
2022/09/26 00:46:31;;;;;;;6.00;4.30;;;8.30;1.00;;;;;;6310677;22;20514;-61
2022/09/26 00:49:07;;;;;;;5.60;3.90;;;8.30;1.00;;;;;;6310789;22;20458;-60
2022/09/26 00:51:39;;;;;;;6.40;4.27;;;8.20;1.00;;;;;;6311170;22;20454;-61
2022/09/26 00:54:10;;;;;;;6.83;4.40;;;8.10;99.90;;;;;;6311720;22;20671;-61
2022/09/26 00:56:39;;;;;;;6.37;4.40;;;8.20;99.90;;;;;;6311002;22;20395;-59
2022/09/26 00:59:12;;;;;;;8.40;5.00;;;8.20;1.00;;;;;;6310399;22;20408;-61
2022/09/26 01:01:41;;;;;;;5.63;4.27;;;8.30;1.00;;;;;;6311432;22;20394;-60
2022/09/26 01:04:12;;;;;;;7.00;4.70;;;8.30;1.00;;;;;;6311288;22;20904;-61
2022/09/26 01:06:39;;;;;;;7.43;5.40;;;8.40;1.00;;;;;;6310666;22;20394;-60
2022/09/26 01:09:08;;;;;;;8.67;5.10;;;8.40;1.00;;;;;;6310522;22;20797;-60
2022/09/26 01:11:40;;;;;;;6.93;4.80;;;8.50;1.00;;;;;;6311307;22;20518;-60
2022/09/26 01:14:09;;;;;;;6.23;4.77;;;8.50;1.00;;;;;;6310899;22;20391;-60
2022/09/26 01:16:37;;;;;;;8.80;5.50;;;8.50;1.00;;;;;;6310784;22;20391;-61
2022/09/26 01:19:13;;;;;;;8.00;5.43;;;8.60;1.00;;;;;;6310616;22;20393;-61
2022/09/26 01:22:18;;;;;;;7.20;5.20;;;8.70;70.70;;;;;;6311065;22;20390;-60
2022/09/26 01:25:00;;;;;;;6.30;4.70;;;8.70;99.90;;;;;;6310889;22;20671;-59
2022/09/26 01:27:53;;;;;;;8.70;5.50;;;8.80;99.90;;;;;;6310915;22;20495;-60
2022/09/26 01:30:25;;;;;;;12.10;6.27;;;8.90;99.90;;;;;;6310225;22;20383;-61
2022/09/26 01:33:19;;;;;;;5.70;4.90;;;9.00;99.90;;;;;;6310922;22;20409;-61
2022/09/26 01:36:12;;;;;;;7.50;5.00;;;9.10;1.00;;;;;;6303524;22;20427;-61
2022/09/26 01:38:50;;;;;;;8.20;5.90;;;9.10;99.90;;;;;;6310560;22;20426;-61
2022/09/26 04:36:27;;;;;;;14.03;10.50;;;9.90;1.00;;;;;;6292365;22;20739;-61
2022/09/26 06:25:11;;;;;;;14.50;8.70;;;10.40;99.90;;;;;;6307363;22;20418;-60
2022/09/26 06:27:41;;;;;;;11.70;9.30;;;10.40;79.20;;;;;;6309394;22;20401;-59
2022/09/26 06:30:09;;;;;;;9.80;8.80;;;10.50;32.10;;;;;;6310652;22;20451;-59
2022/09/26 06:32:38;;;;;;;10.53;9.17;;;10.50;1.00;;;;;;6310005;22;20395;-60
2022/09/26 06:35:11;;;;;;;11.10;8.60;;;10.50;1.00;;;;;;6309934;22;20421;-59
2022/09/26 06:37:38;;;;;;;12.00;9.00;;;10.50;1.00;;;;;;6310294;22;20391;-57
2022/09/26 06:40:10;;;;;;;9.67;7.80;;;10.60;1.00;;;;;;6310389;22;20391;-60
2022/09/26 06:42:39;;;;;;;12.67;8.27;;;10.60;1.00;;;;;;6310197;22;20415;-60
2022/09/26 06:45:08;;;;;;;9.87;8.23;;;10.70;1.00;;;;;;6309804;22;20391;-60
2022/09/26 06:47:35;;;;;;;11.03;7.90;;;10.80;1.00;;;;;;6310269;22;20395;-60
2022/09/26 06:50:03;;;;;;;10.47;7.20;;;10.90;1.00;;;;;;6310309;22;20425;-60
2022/09/26 06:52:34;;;;;;;11.10;8.80;;;10.90;1.00;;;;;;6309903;22;20395;-60
2022/09/26 06:55:02;;;;;;;8.30;7.40;;;10.90;1.00;;;;;;6309162;22;20398;-61
2022/09/26 06:57:36;;;;;;;9.10;7.73;;;11.00;1.00;;;;;;6309945;22;20757;-57
2022/09/26 07:00:08;;;;;;;8.00;6.10;;;11.10;1.00;;;;;;6309330;22;20484;-60
2022/09/26 07:02:36;;;;;;;7.77;6.83;;;11.10;1.00;;;;;;6309490;22;20401;-59
2022/09/26 07:05:04;;;;;;;9.57;6.70;;;11.10;1.00;;;;;;6309343;22;20758;-60
2022/09/26 07:07:42;;;;;;;8.37;6.63;;;11.10;1.00;;;;;;6308396;22;20416;-60
2022/09/26 07:10:10;;;;;;;9.20;6.10;;;11.10;1.00;;;;;;6309068;22;20482;-58
2022/09/26 07:12:42;;;;;;;7.63;6.17;;;11.10;1.00;;;;;;6308653;22;20412;-60
2022/09/26 07:15:12;;;;;;;8.73;5.53;;;11.10;1.00;;;;;;6309663;22;20456;-58
2022/09/26 07:17:40;;;;;;;8.13;6.30;;;11.20;1.00;;;;;;6308735;22;20438;-61
2022/09/26 07:20:10;;;;;;;8.20;6.93;;;11.20;1.00;;;;;;6307048;22;20880;-59
2022/09/26 07:22:37;;;;;;;8.63;6.13;;;11.20;1.00;;;;;;6306604;22;20416;-58
2022/09/26 07:25:05;;;;;;;8.30;5.70;;;11.30;99.90;;;;;;6307582;22;20480;-59
2022/09/26 07:27:34;;;;;;;6.73;5.13;;;11.40;99.90;;;;;;6308740;22;20466;-60
2022/09/26 07:30:02;;;;;;;8.00;4.73;;;11.40;99.90;;;;;;6308782;22;20889;-60
2022/09/26 07:32:33;;;;;;;6.60;4.97;;;11.50;99.90;;;;;;6309099;22;20980;-59
2022/09/26 07:35:04;;;;;;;6.17;5.40;;;11.40;99.90;;;;;;6307691;22;20489;-60
2022/09/26 07:37:35;;;;;;;5.67;4.70;;;11.40;99.90;;;;;;6308884;22;20463;-60
2022/09/26 07:40:03;;;;;;;6.40;4.57;;;11.50;99.90;;;;;;6309919;22;20485;-60
2022/09/26 07:42:30;;;;;;;6.87;4.60;;;11.60;99.90;;;;;;6308745;22;20394;-59
2022/09/26 07:44:58;;;;;;;8.57;4.50;;;11.60;99.90;;;;;;6308853;22;20841;-59
2022/09/26 07:50:18;;;;;;;11.83;4.77;;;11.70;99.90;;;;;;6307391;22;20898;-60
2022/09/26 07:52:47;;;;;;;5.60;4.63;;;11.70;99.90;;;;;;6309677;22;20776;-60
2022/09/26 07:55:16;;;;;;;6.70;3.87;;;11.70;99.90;;;;;;6309236;22;20417;-58
2022/09/26 07:57:45;;;;;;;6.43;4.90;;;11.70;99.90;;;;;;6309474;22;20491;-59
2022/09/26 08:00:16;;;;;;;4.70;3.80;;;11.70;99.90;;;;;;6309387;22;20862;-58
2022/09/26 08:02:45;;;;;;;6.33;4.37;;;11.70;99.90;;;;;;6309381;22;20797;-60
2022/09/26 08:05:18;;;;;;;7.03;4.00;;;11.80;99.90;;;;;;6309794;22;20395;-60
2022/09/26 08:07:48;;;;;;;4.80;3.83;;;11.80;99.90;;;;;;6310158;22;20804;-60
2022/09/26 08:10:18;;;;;;;7.33;4.80;;;11.80;99.90;;;;;;6307624;22;20480;-60
2022/09/26 08:12:47;;;;;;;5.20;4.70;;;11.80;99.90;;;;;;6308164;22;20812;-60
2022/09/26 08:15:17;;;;;;;6.03;3.97;;;11.80;99.90;;;;;;6308506;22;20869;-60
2022/09/26 08:17:45;;;;;;;5.20;4.70;;;11.90;99.90;;;;;;6308973;22;20504;-60
2022/09/26 08:20:12;;;;;;;9.17;5.17;;;11.90;99.90;;;;;;6308293;22;20408;-63
2022/09/26 08:22:41;;;;;;;8.00;4.37;;;11.80;99.90;;;;;;6309896;22;20423;-61
2022/09/26 08:25:13;;;;;;;7.23;4.47;;;11.90;99.90;;;;;;6309912;22;20868;-62
2022/09/26 08:27:46;;;;;;;4.43;3.90;;;11.90;99.90;;;;;;6309762;22;20414;-61
2022/09/26 08:30:13;;;;;;;7.03;4.87;;;11.80;99.90;;;;;;6308685;22;20473;-61
2022/09/26 08:32:41;;;;;;;6.70;4.43;;;12.00;99.90;;;;;;6308871;22;20395;-61
2022/09/26 08:35:10;;;;;;;5.50;4.47;;;12.00;99.90;;;;;;6309971;22;20725;-61
2022/09/26 08:37:38;;;;;;;11.40;4.40;;;12.10;99.90;;;;;;6309832;22;20498;-61
2022/09/26 08:40:10;;;;;;;7.10;4.50;;;12.20;99.90;;;;;;6309238;22;20490;-61
2022/09/26 08:42:45;;;;;;;5.73;3.97;;;12.10;99.90;;;;;;6311533;22;20770;-61
2022/09/26 08:48:34;;;;;;;6.63;4.17;;;12.20;99.90;;;;;;6311636;22;20399;-61
2022/09/26 08:51:10;;;;;;;6.70;4.43;;;12.40;99.90;;;;;;6311462;22;20419;-61
2022/09/26 08:53:45;;;;;;;6.23;4.23;;;12.40;99.90;;;;;;6312078;22;20426;-61
2022/09/26 08:56:21;;;;;;;7.80;4.30;;;12.10;99.90;;;;;;6312616;22;20412;-61
2022/09/26 08:58:52;;;;;;;7.00;4.77;;;11.90;99.90;;;;;;6312822;22;20395;-61
2022/09/26 09:01:26;;;;;;;5.73;4.13;;;11.90;99.90;;;;;;6312527;22;20514;-61
2022/09/26 09:04:06;;;;;;;7.50;4.33;;;12.00;99.90;;;;;;6312174;22;20473;-62
2022/09/26 09:06:34;;;;;;;6.27;4.33;;;12.00;99.90;;;;;;6311096;22;20423;-62
2022/09/26 09:09:06;;;;;;;10.67;5.70;;;11.80;99.90;;;;;;6311118;22;20423;-63
2022/09/26 09:11:51;;;;;;;6.77;5.03;;;11.80;99.90;;;;;;6310827;22;20412;-62
2022/09/26 09:14:38;;;;;;;7.77;6.27;;;11.70;99.90;;;;;;6310830;22;20430;-62
2022/09/26 09:17:19;;;;;;;6.73;4.60;;;11.70;1.00;;;;;;6311358;22;20416;-62
2022/09/26 09:19:56;;;;;;;8.07;4.60;;;11.80;1.00;;;;;;6309853;22;20398;-62
2022/09/26 09:22:45;;;;;;;6.17;5.50;;;11.80;1.00;;;;;;6309859;22;20487;-62
2022/09/26 09:25:21;;;;;;;8.63;5.20;;;11.80;1.00;;;;;;6310606;22;20565;-61
2022/09/26 09:28:02;;;;;;;6.97;4.30;;;11.70;1.00;;;;;;6311056;22;20653;-61
2022/09/26 09:30:38;;;;;;;6.20;4.07;;;11.60;1.00;;;;;;6310606;22;20428;-61
2022/09/26 09:33:11;;;;;;;6.80;4.50;;;11.60;1.00;;;;;;6309921;22;20415;-60
2022/09/26 09:35:46;;;;;;;5.97;4.30;;;11.50;1.00;;;;;;6310848;22;20938;-58
2022/09/26 09:38:17;;;;;;;4.73;4.20;;;11.30;1.00;;;;;;6310134;22;20392;-60
2022/09/26 09:40:49;;;;;;;4.27;3.80;;;11.30;1.00;;;;;;6310597;22;20490;-58
2022/09/26 09:43:25;;;;;;;9.47;5.03;;;11.20;1.00;;;;;;6310000;22;20416;-60
2022/09/26 09:45:57;;;;;;;5.73;4.53;;;11.20;1.00;;;;;;6311160;22;20401;-61
2022/09/26 09:48:27;;;;;;;5.33;4.80;;;11.20;1.00;;;;;;6309990;22;20391;-62
2022/09/26 09:51:14;;;;;;;7.13;4.93;;;11.10;1.00;;;;;;6310208;22;20756;-61
2022/09/26 09:53:55;;;;;;;8.10;4.57;;;11.10;1.00;;;;;;6310324;22;20448;-62
2022/09/26 09:56:32;;;;;;;6.50;4.40;;;11.10;1.00;;;;;;6310667;22;20394;-58
2022/09/26 09:59:21;;;;;;;6.47;4.57;;;11.10;19.40;;;;;;6310905;22;20434;-59
2022/09/26 10:01:57;;;;;;;4.13;3.73;;;11.20;36.90;;;;;;6311104;22;20420;-61
2022/09/26 10:04:34;;;;;;;8.27;4.90;;;11.00;1.00;;;;;;6309577;22;20401;-61
2022/09/26 10:07:05;;;;;;;5.40;4.07;;;11.00;18.30;;;;;;6309473;22;20400;-61
2022/09/26 10:09:38;;;;;;;6.77;3.77;;;10.90;20.20;;;;;;6309616;22;20914;-60
2022/09/26 10:12:15;;;;;;;6.07;4.27;;;10.90;99.90;;;;;;6309753;22;20397;-59
2022/09/26 10:14:49;;;;;;;5.53;4.10;;;10.80;99.90;;;;;;6308168;22;20640;-63
2022/09/26 10:17:21;;;;;;;5.93;4.03;;;10.90;99.90;;;;;;6309203;22;20904;-63
2022/09/26 10:19:49;;;;;;;6.70;4.27;;;11.00;99.90;;;;;;6309006;22;20394;-62
2022/09/26 10:22:25;;;;;;;5.17;4.10;;;11.00;99.90;;;;;;6309900;22;20474;-63
2022/09/26 10:24:54;;;;;;;7.73;4.70;;;11.20;99.90;;;;;;6309505;22;20418;-64
2022/09/26 10:27:36;;;;;;;5.97;4.43;;;11.30;99.90;;;;;;6309967;22;20498;-64
2022/09/26 10:30:22;;;;;;;5.93;5.30;;;11.30;18.60;;;;;;6310017;22;20415;-65
2022/09/26 10:32:55;;;;;;;5.90;3.80;;;11.40;58.30;;;;;;6309888;22;20424;-66
2022/09/26 10:35:27;;;;;;;4.40;3.63;;;11.50;20.40;;;;;;6309918;22;20853;-64
2022/09/26 10:38:19;;;;;;;6.33;3.53;;;11.60;37.40;;;;;;6309990;22;20417;-65
2022/09/26 10:40:53;;;;;;;5.40;4.07;;;11.50;1.00;;;;;;6309865;22;20485;-67
2022/09/26 10:43:23;;;;;;;3.97;3.43;;;11.60;1.00;;;;;;6310337;22;20399;-67
2022/09/26 10:46:05;;;;;;;4.43;4.03;;;11.50;1.00;;;;;;6310509;22;20467;-65
2022/09/26 10:48:45;;;;;;;4.80;3.77;;;11.70;1.00;;;;;;6308841;22;20423;-64
2022/09/26 10:51:30;;;;;;;6.80;4.40;;;11.40;1.00;;;;;;6310389;22;20751;-67
2022/09/26 10:54:04;;;;;;;4.00;3.60;;;11.50;1.00;;;;;;6309954;22;20493;-65
2022/09/26 10:56:38;;;;;;;3.97;3.00;;;11.40;1.00;;;;;;6309791;22;20423;-65
2022/09/26 10:59:10;;;;;;;6.53;3.73;;;11.50;1.00;;;;;;6309487;22;20396;-66
2022/09/26 11:01:46;;;;;;;6.40;4.50;;;11.50;1.00;;;;;;6309477;22;20515;-65
2022/09/26 11:05:55;;;;;;;6.00;3.93;;;11.60;1.00;;;;;;6309624;22;20393;-66
2022/09/26 11:07:07;;;;;;;4.03;3.63;;;11.50;1.00;;;;;;6308827;22;20412;-64
2022/09/26 11:09:38;;;;;;;6.00;3.70;;;11.50;1.00;;;;;;6309698;22;20705;-64
2022/09/26 11:12:22;;;;;;;5.70;3.47;;;11.40;1.00;;;;;;6310656;22;20919;-64
2022/09/26 11:14:58;;;;;;;4.33;3.93;;;11.40;1.00;;;;;;6309416;22;20526;-64
2022/09/26 11:17:43;;;;;;;4.23;3.73;;;11.50;1.00;;;;;;6309610;22;20462;-65
2022/09/26 11:20:17;;;;;;;4.47;4.07;;;11.50;1.00;;;;;;6308352;22;20756;-64
2022/09/26 11:22:52;;;;;;;5.37;3.77;;;11.30;1.00;;;;;;6309941;22;20390;-64
2022/09/26 11:25:27;;;;;;;4.63;3.83;;;11.50;1.00;;;;;;6309107;22;20796;-65
2022/09/26 11:28:04;;;;;;;4.83;4.03;;;11.50;1.00;;;;;;6309228;22;20407;-66
2022/09/26 11:30:36;;;;;;;3.50;3.20;;;11.60;1.00;;;;;;6308496;22;20426;-64
2022/09/26 11:33:12;;;;;;;5.40;3.87;;;11.70;1.00;;;;;;6308769;22;20421;-63
2022/09/26 11:35:55;;;;;;;4.50;3.60;;;12.00;1.00;;;;;;6309134;22;20478;-63
2022/09/26 11:38:41;;;;;;;4.30;3.90;;;12.30;1.00;;;;;;6309119;22;20416;-63
2022/09/26 11:41:40;;;;;;;4.50;3.40;;;12.20;1.00;;;;;;6308657;22;20749;-58
2022/09/26 11:44:31;;;;;;;9.30;3.97;;;12.40;1.00;;;;;;6310128;22;20420;-62
2022/09/26 11:47:20;;;;;;;9.53;4.00;;;12.60;1.00;;;;;;6308115;22;20398;-60
2022/09/26 11:50:06;;;;;;;3.80;3.13;;;12.70;1.00;;;;;;6309607;22;20755;-60
2022/09/26 11:52:47;;;;;;;3.50;3.20;;;12.80;99.90;;;;;;6308512;22;20419;-62
2022/09/26 11:55:29;;;;;;;5.60;3.50;;;13.00;1.00;;;;;;6309221;22;20398;-63
2022/09/26 11:58:04;;;;;;;6.63;3.87;;;13.00;99.90;;;;;;6309403;22;20523;-61
2022/09/26 12:00:42;;;;;;;4.33;3.33;;;12.90;99.90;;;;;;6308859;22;20493;-62
2022/09/26 12:03:42;;;;;;;3.87;3.37;;;12.90;1.00;;;;;;6309813;22;20416;-62
2022/09/26 12:06:28;;;;;;;4.10;3.70;;;13.00;99.90;;;;;;6308733;22;20694;-61
2022/09/26 12:09:23;;;;;;;3.57;3.27;;;12.90;99.90;;;;;;6308967;22;20891;-61
2022/09/26 12:12:02;;;;;;;6.57;3.67;;;12.90;99.90;;;;;;6308713;22;20543;-62
2022/09/26 12:14:40;;;;;;;5.13;4.07;;;12.80;99.90;;;;;;6308778;22;20857;-63
2022/09/26 12:17:18;;;;;;;5.20;4.57;;;12.80;99.90;;;;;;6310720;22;20888;-62
2022/09/26 12:19:56;;;;;;;4.80;3.87;;;12.90;99.90;;;;;;6310862;22;20514;-62
2022/09/26 12:22:34;;;;;;;4.03;3.57;;;13.20;99.90;;;;;;6310569;22;20398;-62
2022/09/26 12:25:28;;;;;;;5.20;3.77;;;13.60;99.90;;;;;;6311398;22;20439;-62
2022/09/26 12:28:09;;;;;;;3.90;3.00;;;14.20;99.90;;;;;;6311382;22;20427;-60
2022/09/26 12:30:43;;;;;;;3.47;2.57;;;14.50;99.90;;;;;;6311421;22;20900;-63
2022/09/26 12:33:41;;;;;;;3.20;2.80;;;14.20;99.90;;;;;;6311625;22;20425;-62
2022/09/26 12:36:20;;;;;;;3.40;2.80;;;14.40;99.90;;;;;;6311367;22;20423;-61
2022/09/26 12:39:20;;;;;;;3.73;2.40;;;15.00;99.90;;;;;;6311093;22;20930;-62
2022/09/26 12:42:06;;;;;;;4.83;2.67;;;15.00;99.90;;;;;;6304371;22;20515;-64
2022/09/26 12:44:54;;;;;;;4.50;2.67;;;14.70;99.90;;;;;;6310798;22;20422;-62
2022/09/26 12:47:51;;;;;;;8.13;2.60;;;14.80;99.90;;;;;;6311202;22;20424;-62
2022/09/26 12:50:29;;;;;;;3.70;2.77;;;14.90;99.90;;;;;;6310302;22;20451;-63
2022/09/26 12:53:18;;;;;;;3.80;2.63;;;15.00;99.90;;;;;;6311046;22;20511;-63
2022/09/26 12:55:58;;;;;;;5.87;3.07;;;14.50;99.90;;;;;;6310617;22;20842;-62
2022/09/26 12:58:47;;;;;;;4.63;3.30;;;14.10;99.90;;;;;;6310662;22;20759;-62
2022/09/26 13:01:42;;;;;;;4.10;2.83;;;13.90;99.90;;;;;;6311487;22;20412;-63
2022/09/26 13:04:36;;;;;;;4.87;2.97;;;13.40;99.90;;;;;;6311206;22;20420;-62
2022/09/26 13:07:20;;;;;;;4.00;3.10;;;13.20;99.90;;;;;;6310749;22;20459;-63
2022/09/26 13:10:22;;;;;;;5.13;3.63;;;13.00;99.90;;;;;;6310703;22;20449;-63
2022/09/26 13:13:16;;;;;;;3.67;3.00;;;12.80;99.90;;;;;;6310639;22;20823;-61
2022/09/26 13:15:59;;;;;;;6.17;3.00;;;12.50;99.90;;;;;;6311445;22;20511;-63
2022/09/26 13:18:32;;;;;;;6.73;3.53;;;12.40;1.00;;;;;;6310491;22;20414;-62
2022/09/26 13:21:07;;;;;;;5.23;3.10;;;12.20;1.00;;;;;;6310288;22;20433;-63
2022/09/26 13:23:39;;;;;;;3.73;3.37;;;12.10;1.00;;;;;;6309649;22;20450;-64
2022/09/26 13:26:14;;;;;;;4.97;3.30;;;11.90;1.00;;;;;;6310683;22;20968;-63
2022/09/26 13:28:46;;;;;;;3.50;2.77;;;11.90;1.00;;;;;;6309521;22;20412;-64
2022/09/26 13:31:25;;;;;;;7.73;3.80;;;12.00;1.00;;;;;;6310233;22;20443;-66
2022/09/26 13:33:58;;;;;;;3.67;3.13;;;11.90;1.00;;;;;;6310625;22;20416;-66
2022/09/26 13:36:32;;;;;;;3.73;2.93;;;11.90;1.00;;;;;;6310640;22;20420;-65
2022/09/26 13:39:03;;;;;;;4.13;3.73;;;12.10;1.00;;;;;;6310496;22;20477;-64
2022/09/26 13:41:42;;;;;;;5.07;3.60;;;12.40;1.00;;;;;;6310233;22;20503;-64
2022/09/26 13:44:24;;;;;;;3.80;3.20;;;12.50;1.00;;;;;;6310909;22;20441;-63
2022/09/26 13:47:04;;;;;;;5.93;3.20;;;12.40;1.00;;;;;;6310503;22;20420;-63
2022/09/26 13:49:44;;;;;;;4.53;2.90;;;12.30;1.00;;;;;;6310746;22;20423;-66
2022/09/26 13:52:21;;;;;;;3.43;3.10;;;12.20;1.00;;;;;;6310639;22;20807;-67
2022/09/26 13:55:01;;;;;;;5.77;3.47;;;12.50;1.00;;;;;;6310637;22;20417;-66
2022/09/26 13:57:37;;;;;;;3.90;3.00;;;12.50;1.00;;;;;;6311113;22;20445;-66
2022/09/26 14:00:47;;;;;;;5.33;3.27;;;12.40;1.00;;;;;;6310208;22;20422;-64
2022/09/26 14:03:37;;;;;;;4.57;3.47;;;12.40;1.00;;;;;;6310880;22;20866;-65
2022/09/26 14:06:34;;;;;;;5.07;3.47;;;12.40;1.00;;;;;;6309844;22;20412;-65
2022/09/26 14:09:24;;;;;;;4.07;3.40;;;12.10;1.00;;;;;;6309293;22;20489;-64
2022/09/26 14:12:15;;;;;;;4.67;4.23;;;12.10;1.00;;;;;;6309150;22;20444;-65
2022/09/26 14:14:48;;;;;;;4.30;3.50;;;12.00;1.00;;;;;;6308963;22;20416;-65
2022/09/26 14:18:04;;;;;;;5.20;2.97;;;12.00;1.00;;;;;;6309607;22;20424;-65
2022/09/26 14:20:38;;;;;;;3.90;2.77;;;12.10;1.00;;;;;;6308323;22;20420;-63
2022/09/26 14:23:05;;;;;;;6.97;3.50;;;12.00;1.00;;;;;;6309710;22;20419;-64
2022/09/26 14:26:05;;;;;;;5.97;3.20;;;12.00;1.00;;;;;;6309766;22;20444;-63
2022/09/26 14:28:35;;;;;;;5.00;3.30;;;11.90;1.00;;;;;;6309812;22;20424;-64
2022/09/26 14:31:42;;;;;;;5.70;3.97;;;11.90;1.00;;;;;;6309780;22;20427;-64
2022/09/26 14:34:20;;;;;;;11.73;3.83;;;11.90;1.00;;;;;;6310075;22;20424;-65
2022/09/26 14:36:50;;;;;;;5.17;3.30;;;11.80;1.00;;;;;;6310685;22;20423;-65
2022/09/26 14:39:39;;;;;;;6.70;3.60;;;11.60;1.00;;;;;;6309579;22;20439;-64
2022/09/26 14:42:21;;;;;;;5.60;4.03;;;11.60;94.60;;;;;;6309936;22;20507;-65
2022/09/26 14:44:57;;;;;;;5.07;3.40;;;11.50;46.60;;;;;;6310070;22;20414;-64
2022/09/26 14:47:26;;;;;;;6.80;4.10;;;11.40;99.90;;;;;;6310120;22;20416;-65
2022/09/26 14:50:00;;;;;;;5.87;4.07;;;11.40;99.90;;;;;;6308675;22;20444;-64
2022/09/26 14:52:29;;;;;;;4.40;3.37;;;11.40;1.00;;;;;;6306027;22;20419;-65
2022/09/26 14:55:00;;;;;;;5.53;3.40;;;11.30;1.00;;;;;;6308817;22;20736;-64
2022/09/26 14:57:31;;;;;;;7.70;3.40;;;11.30;1.00;;;;;;6307181;22;20391;-62
2022/09/26 14:59:59;;;;;;;8.70;6.00;;;11.20;99.90;;;;;;6308981;22;20415;-65
2022/09/26 15:02:37;;;;;;;6.93;5.03;;;11.30;1.00;;;;;;6307724;22;20405;-65
2022/09/26 15:05:16;;;;;;;5.10;3.70;;;11.20;1.00;;;;;;6310312;22;20495;-64
2022/09/26 15:07:47;;;;;;;5.60;4.77;;;11.20;1.00;;;;;;6309656;22;20474;-64
2022/09/26 15:10:24;;;;;;;6.10;3.77;;;11.20;99.90;;;;;;6310544;22;20813;-65
2022/09/26 15:13:01;;;;;;;4.60;3.63;;;11.20;99.90;;;;;;6309526;22;20418;-64
2022/09/26 15:15:43;;;;;;;3.80;3.40;;;11.20;1.00;;;;;;6310122;22;20416;-66
2022/09/26 15:18:15;;;;;;;6.40;4.03;;;11.20;1.00;;;;;;6309308;22;20851;-66
2022/09/26 15:20:49;;;;;;;4.63;3.77;;;11.30;99.90;;;;;;6309003;22;20420;-66
2022/09/26 15:23:26;;;;;;;5.00;3.80;;;11.40;37.40;;;;;;6309064;22;20391;-66
2022/09/26 15:25:55;;;;;;;4.40;3.70;;;11.30;99.90;;;;;;6309578;22;20439;-65
2022/09/26 15:28:30;;;;;;;13.73;4.10;;;11.30;99.90;;;;;;6309371;22;20391;-65
2022/09/26 15:31:20;;;;;;;6.50;4.80;;;11.30;1.00;;;;;;6310071;22;20436;-64
2022/09/26 15:33:55;;;;;;;4.90;4.40;;;11.30;26.20;;;;;;6305095;22;20420;-63
2022/09/26 15:36:23;;;;;;;8.10;4.70;;;11.30;1.00;;;;;;6309059;22;20451;-63
2022/09/26 15:38:52;;;;;;;9.33;7.33;;;11.20;1.00;;;;;;6309304;22;20420;-65
2022/09/26 15:44:02;;;;;;;4.97;4.00;;;11.20;99.90;;;;;;6306587;22;20398;-63
2022/09/26 15:46:30;;;;;;;6.93;4.60;;;11.10;1.00;;;;;;6308223;22;20416;-66
2022/09/26 15:49:11;;;;;;;6.70;4.70;;;11.10;1.00;;;;;;6308729;22;20824;-65
2022/09/26 15:51:40;;;;;;;7.20;4.53;;;10.90;1.00;;;;;;6309180;22;20442;-64
2022/09/26 15:54:13;;;;;;;6.23;4.00;;;11.00;1.00;;;;;;6308746;22;20398;-65
2022/09/26 15:56:51;;;;;;;9.80;5.60;;;11.00;46.10;;;;;;6308749;22;20395;-63
2022/09/26 15:59:23;;;;;;;5.37;3.93;;;11.00;1.00;;;;;;6308952;22;20391;-65
2022/09/26 16:01:53;;;;;;;9.50;4.60;;;10.90;1.00;;;;;;6309577;22;20387;-65
2022/09/26 16:04:22;;;;;;;7.93;5.07;;;11.00;1.00;;;;;;6308212;22;20417;-66
2022/09/26 16:07:01;;;;;;;11.30;9.10;;;11.00;99.90;;;;;;6308729;22;20478;-66
2022/09/26 16:09:41;;;;;;;7.60;5.47;;;11.00;1.00;;;;;;6309163;22;20420;-65
2022/09/26 16:12:22;;;;;;;5.63;4.47;;;11.00;1.00;;;;;;6308892;22;20513;-67
2022/09/26 16:14:53;;;;;;;5.73;4.40;;;11.00;39.30;;;;;;6308769;22;20736;-65
2022/09/26 16:17:24;;;;;;;5.33;4.40;;;11.00;83.40;;;;;;6307311;22;20441;-65
2022/09/26 16:19:53;;;;;;;8.70;5.60;;;10.90;1.00;;;;;;6307875;22;20421;-63
2022/09/26 16:22:44;;;;;;;8.90;4.37;;;10.90;52.20;;;;;;6308323;22;20470;-64
2022/09/26 16:25:33;;;;;;;5.50;4.90;;;10.90;99.90;;;;;;6290548;22;20418;-65
2022/09/26 16:28:22;;;;;;;7.93;4.50;;;10.80;99.90;;;;;;6309140;22;20513;-64
2022/09/26 16:31:14;;;;;;;6.30;4.23;;;10.70;99.90;;;;;;6288594;22;20406;-64
2022/09/26 16:33:48;;;;;;;6.07;5.53;;;10.70;99.90;;;;;;6309049;22;20426;-63
2022/09/26 16:36:23;;;;;;;6.17;4.77;;;10.70;99.90;;;;;;6308312;22;20391;-63
2022/09/26 16:39:02;;;;;;;7.83;4.67;;;10.70;99.90;;;;;;6308074;22;20420;-64
2022/09/26 16:41:37;;;;;;;5.50;4.50;;;10.60;99.90;;;;;;6308710;22;20497;-63
2022/09/26 16:44:09;;;;;;;6.47;4.37;;;10.60;99.90;;;;;;6308223;22;20390;-60
2022/09/26 16:46:39;;;;;;;7.90;4.60;;;10.50;99.90;;;;;;6308968;22;20424;-61
2022/09/26 16:49:44;;;;;;;5.63;5.13;;;10.60;99.90;;;;;;6307032;22;20392;-61
2022/09/26 16:52:30;;;;;;;5.50;4.10;;;10.60;99.90;;;;;;6307330;22;20427;-62
2022/09/26 16:55:00;;;;;;;6.03;4.50;;;10.50;99.90;;;;;;6307718;22;20401;-63
2022/09/26 16:57:34;;;;;;;8.80;4.80;;;10.60;99.90;;;;;;6307886;22;20434;-63
2022/09/26 17:02:50;;;;;;;5.30;4.80;;;10.50;99.90;;;;;;6308598;22;20397;-62
2022/09/26 17:05:19;;;;;;;12.80;4.77;;;10.50;99.90;;;;;;6310584;22;20416;-62
2022/09/26 17:07:48;;;;;;;5.33;4.83;;;10.50;99.90;;;;;;6310457;22;20412;-64
2022/09/26 17:10:16;;;;;;;4.83;4.43;;;10.50;99.90;;;;;;6309448;22;20391;-63
2022/09/26 17:12:52;;;;;;;7.00;5.40;;;10.50;99.90;;;;;;6308107;22;20729;-64
2022/09/26 17:15:26;;;;;;;6.37;4.83;;;10.50;99.90;;;;;;6309670;22;20514;-65
2022/09/26 17:17:55;;;;;;;7.07;5.10;;;10.40;99.90;;;;;;6308493;22;20423;-64
2022/09/26 17:20:23;;;;;;;6.93;5.27;;;10.50;99.90;;;;;;6307445;22;20416;-62
2022/09/26 17:22:52;;;;;;;5.80;5.30;;;10.50;99.90;;;;;;6309696;22;20438;-62
2022/09/26 17:25:19;;;;;;;5.77;4.97;;;10.50;99.90;;;;;;6309826;22;20425;-64
2022/09/26 17:27:56;;;;;;;9.23;6.60;;;10.50;99.90;;;;;;6310273;22;20435;-64
2022/09/26 17:30:32;;;;;;;8.30;7.03;;;10.50;99.90;;;;;;6309786;22;20420;-64
2022/09/26 17:32:59;;;;;;;9.30;6.73;;;10.50;99.90;;;;;;6310050;22;20445;-61
2022/09/26 17:35:30;;;;;;;10.90;9.20;;;10.50;99.90;;;;;;6309503;22;20857;-62
2022/09/26 17:37:57;;;;;;;6.63;5.70;;;10.40;99.90;;;;;;6309362;22;20395;-63
2022/09/26 17:40:26;;;;;;;7.67;6.40;;;10.40;99.90;;;;;;6309289;22;20396;-62
2022/09/26 17:42:56;;;;;;;7.60;6.80;;;10.50;99.90;;;;;;6308681;22;20858;-61
2022/09/26 17:45:27;;;;;;;6.43;5.80;;;10.40;99.90;;;;;;6309098;22;20431;-61
2022/09/26 17:47:57;;;;;;;6.10;5.50;;;10.40;99.90;;;;;;6310281;22;20391;-63
2022/09/26 17:50:28;;;;;;;6.50;5.90;;;10.30;99.90;;;;;;6310020;22;20397;-62
2022/09/26 17:52:57;;;;;;;6.80;6.10;;;10.30;99.90;;;;;;6310065;22;20444;-63
2022/09/26 17:55:32;;;;;;;6.83;5.77;;;10.30;99.90;;;;;;6308736;22;20398;-63
2022/09/26 17:58:01;;;;;;;12.30;5.50;;;10.30;99.90;;;;;;6310401;22;20439;-61
2022/09/26 18:00:33;;;;;;;5.07;4.57;;;10.40;99.90;;;;;;6310146;22;20925;-61
2022/09/26 18:03:02;;;;;;;7.67;6.77;;;10.30;99.90;;;;;;6308778;22;20491;-62
2022/09/26 18:05:36;;;;;;;6.40;5.33;;;10.30;99.90;;;;;;6308645;22;20391;-64
2022/09/26 18:08:09;;;;;;;6.00;5.50;;;10.30;99.90;;;;;;6310645;22;20850;-63
2022/09/26 18:10:40;;;;;;;7.47;5.57;;;10.30;99.90;;;;;;6310886;22;20390;-62
2022/09/26 18:13:15;;;;;;;5.90;4.80;;;10.30;99.90;;;;;;6309849;22;20452;-63
2022/09/26 18:15:43;;;;;;;6.00;5.00;;;10.30;99.90;;;;;;6310008;22;20427;-63
2022/09/26 18:18:14;;;;;;;7.60;5.43;;;10.30;99.90;;;;;;6310283;22;20394;-62
2022/09/26 18:20:42;;;;;;;5.43;4.90;;;10.20;99.90;;;;;;6310999;22;20820;-62
2022/09/26 18:23:16;;;;;;;4.50;4.00;;;10.20;99.90;;;;;;6310573;22;20471;-60
2022/09/26 18:25:50;;;;;;;5.90;4.87;;;10.20;99.90;;;;;;6309824;22;20476;-62
2022/09/26 18:28:22;;;;;;;7.10;5.10;;;10.20;99.90;;;;;;6310505;22;20391;-64
2022/09/26 18:30:52;;;;;;;5.30;4.80;;;10.20;99.90;;;;;;6310918;22;20387;-65